createdAt,value
2017-11-10T00:00:54.023Z,19.02
2017-11-10T00:03:21.480Z,19.15
2017-11-10T00:05:48.949Z,18.23
2017-11-10T00:08:16.459Z,17.95
2017-11-10T00:10:43.892Z,18.90
2017-11-10T00:13:11.364Z,20.85
2017-11-10T00:15:38.813Z,19.23
2017-11-10T00:18:06.280Z,18.20
2017-11-10T00:20:34.501Z,21.37
2017-11-10T00:23:01.983Z,20.83
2017-11-10T00:25:29.434Z,21.58
2017-11-10T00:27:56.886Z,19.55
2017-11-10T00:30:24.361Z,19.42
2017-11-10T00:32:52.010Z,20.95
2017-11-10T00:35:19.527Z,20.02
2017-11-10T00:37:47.724Z,22.17
2017-11-10T00:40:15.196Z,20.37
2017-11-10T00:42:43.437Z,22.50
2017-11-10T00:45:10.879Z,20.10
2017-11-10T00:47:38.338Z,20.12
2017-11-10T00:50:06.538Z,20.90
2017-11-10T00:52:34.096Z,20.80
2017-11-10T00:55:01.566Z,20.92
2017-11-10T00:57:29.025Z,20.88
2017-11-10T00:59:58.963Z,17.77
2017-11-10T01:02:26.470Z,20.48
2017-11-10T01:04:54.704Z,23.60
2017-11-10T01:07:22.183Z,21.37
2017-11-10T01:09:49.651Z,21.83
2017-11-10T01:12:17.101Z,20.95
2017-11-10T01:14:44.557Z,19.85
2017-11-10T01:17:12.772Z,20.67
2017-11-10T01:19:42.181Z,19.70
2017-11-10T01:22:12.144Z,20.88
2017-11-10T01:24:39.609Z,20.73
2017-11-10T01:27:07.053Z,21.15
2017-11-10T01:29:35.277Z,20.20
2017-11-10T01:32:02.722Z,20.35
2017-11-10T01:34:30.935Z,21.37
2017-11-10T01:36:58.391Z,20.95
2017-11-10T01:39:26.598Z,20.30
2017-11-10T01:41:54.167Z,21.15
2017-11-10T01:44:21.602Z,20.65
2017-11-10T01:46:49.048Z,21.95
2017-11-10T01:49:19.465Z,20.42
2017-11-10T01:51:46.901Z,22.77
2017-11-10T01:54:14.405Z,21.23
2017-11-10T01:56:42.711Z,23.02
2017-11-10T01:59:10.181Z,19.98
2017-11-10T02:01:37.620Z,20.92
2017-11-10T02:04:05.152Z,22.65
2017-11-10T02:06:35.144Z,20.90
2017-11-10T02:09:03.366Z,20.42
2017-11-10T02:11:30.797Z,21.87
2017-11-10T02:13:59.053Z,21.67
2017-11-10T02:16:26.501Z,21.75
2017-11-10T02:18:53.940Z,18.00
2017-11-10T02:21:21.391Z,21.23
2017-11-10T02:23:48.833Z,21.87
2017-11-10T02:26:16.288Z,22.40
2017-11-10T02:28:46.359Z,20.45
2017-11-10T02:31:13.832Z,22.85
2017-11-10T02:33:41.264Z,20.33
2017-11-10T02:36:08.760Z,19.45
2017-11-10T02:38:36.225Z,19.17
2017-11-10T02:41:03.682Z,19.15
2017-11-10T02:43:31.905Z,22.20
2017-11-10T02:45:59.349Z,23.27
2017-11-10T02:48:27.604Z,20.75
2017-11-10T02:50:55.038Z,20.58
2017-11-10T02:53:22.545Z,22.87
2017-11-10T02:55:50.030Z,22.70
2017-11-10T02:58:17.482Z,23.23
2017-11-10T03:00:44.938Z,21.83
2017-11-10T03:03:12.393Z,22.30
2017-11-10T03:05:40.629Z,21.75
2017-11-10T03:08:08.149Z,20.50
2017-11-10T03:10:35.603Z,22.92
2017-11-10T03:13:03.057Z,24.25
2017-11-10T03:15:30.519Z,22.65
2017-11-10T03:17:57.989Z,21.83
2017-11-10T03:20:25.449Z,21.65
2017-11-10T03:22:52.916Z,21.40
2017-11-10T03:25:21.120Z,20.50
2017-11-10T03:27:48.577Z,20.50
2017-11-10T03:30:16.789Z,19.75
2017-11-10T03:32:44.261Z,20.25
2017-11-10T03:35:11.704Z,20.12
2017-11-10T03:37:39.146Z,21.67
2017-11-10T03:40:06.602Z,21.25
2017-11-10T03:42:34.036Z,22.08
2017-11-10T03:45:02.273Z,22.13
2017-11-10T03:47:29.718Z,21.35
2017-11-10T03:49:57.173Z,22.42
2017-11-10T03:52:25.396Z,21.70
2017-11-10T03:54:52.840Z,21.90
2017-11-10T03:57:21.076Z,24.05
2017-11-10T03:59:48.545Z,24.15
2017-11-10T04:02:16.003Z,22.67
2017-11-10T04:04:43.436Z,24.63
2017-11-10T04:07:10.889Z,24.02
2017-11-10T04:09:38.376Z,23.50
2017-11-10T04:12:05.868Z,25.00
2017-11-10T04:14:33.310Z,24.55
2017-11-10T04:17:00.756Z,25.48
2017-11-10T04:19:28.211Z,22.75
2017-11-10T04:21:56.447Z,25.40
2017-11-10T04:24:23.925Z,23.77
2017-11-10T04:26:51.413Z,23.35
2017-11-10T04:29:18.871Z,21.92
2017-11-10T04:31:46.604Z,23.87
2017-11-10T04:34:14.832Z,22.77
2017-11-10T04:36:42.340Z,21.58
2017-11-10T04:39:09.774Z,24.20
2017-11-10T04:41:37.242Z,26.02
2017-11-10T04:44:04.705Z,24.98
2017-11-10T04:46:32.937Z,24.05
2017-11-10T04:49:00.405Z,25.75
2017-11-10T04:51:27.860Z,24.48
2017-11-10T04:53:55.339Z,21.75
2017-11-10T04:56:22.805Z,22.95
2017-11-10T04:58:51.058Z,26.87
2017-11-10T05:01:18.518Z,25.80
2017-11-10T05:03:45.983Z,27.40
2017-11-10T05:06:13.444Z,27.17
2017-11-10T05:08:41.008Z,26.20
2017-11-10T05:11:08.473Z,23.38
2017-11-10T05:13:35.944Z,28.70
2017-11-10T05:16:04.167Z,26.27
2017-11-10T05:18:31.624Z,26.55
2017-11-10T05:20:59.104Z,25.80
2017-11-10T05:23:26.618Z,24.63
2017-11-10T05:25:57.708Z,24.30
2017-11-10T05:28:25.922Z,22.75
2017-11-10T05:30:53.396Z,23.20
2017-11-10T05:33:20.891Z,26.45
2017-11-10T05:35:49.090Z,25.05
2017-11-10T05:38:20.256Z,25.80
2017-11-10T05:40:47.697Z,24.83
2017-11-10T05:43:15.941Z,26.20
2017-11-10T05:45:43.374Z,26.70
2017-11-10T05:48:10.972Z,26.35
2017-11-10T05:50:38.408Z,26.50
2017-11-10T05:53:05.846Z,29.52
2017-11-10T05:55:33.315Z,27.10
2017-11-10T05:58:00.771Z,23.67
2017-11-10T06:00:28.305Z,28.33
2017-11-10T06:02:56.545Z,25.83
2017-11-10T06:05:24.004Z,26.83
2017-11-10T06:07:51.449Z,27.10
2017-11-10T06:10:19.710Z,26.30
2017-11-10T06:12:47.219Z,28.00
2017-11-10T06:15:14.768Z,28.75
2017-11-10T06:17:42.261Z,27.87
2017-11-10T06:20:10.549Z,27.80
2017-11-10T06:22:38.814Z,27.52
2017-11-10T06:25:06.343Z,27.77
2017-11-10T06:27:33.879Z,27.33
2017-11-10T06:30:02.213Z,27.08
2017-11-10T06:32:29.771Z,25.42
2017-11-10T06:34:57.242Z,27.27
2017-11-10T06:49:16.439Z,27.17
2017-11-10T06:51:43.906Z,24.67
2017-11-10T06:54:11.428Z,27.65
2017-11-10T06:56:38.958Z,23.38
2017-11-10T06:59:06.455Z,25.15
2017-11-10T07:01:33.977Z,26.75
2017-11-10T07:04:01.443Z,27.37
2017-11-10T07:06:29.013Z,25.27
2017-11-10T07:08:56.494Z,26.77
2017-11-10T07:11:23.950Z,27.58
2017-11-10T07:13:51.499Z,27.67
2017-11-10T07:16:19.120Z,25.95
2017-11-10T07:18:46.585Z,26.10
2017-11-10T07:21:14.059Z,27.23
2017-11-10T07:23:41.509Z,26.90
2017-11-10T07:26:08.968Z,27.35
2017-11-10T07:28:36.457Z,26.55
2017-11-10T07:31:03.917Z,26.70
2017-11-10T07:33:31.376Z,26.70
2017-11-10T07:35:59.619Z,25.90
2017-11-10T07:38:27.061Z,25.77
2017-11-10T07:40:54.641Z,25.52
2017-11-10T07:43:22.096Z,27.25
2017-11-10T07:45:50.316Z,25.70
2017-11-10T07:48:17.777Z,27.05
2017-11-10T07:50:45.271Z,27.30
2017-11-10T07:53:12.735Z,25.73
2017-11-10T07:55:40.941Z,27.15
2017-11-10T07:58:08.536Z,25.67
2017-11-10T08:00:40.822Z,25.55
2017-11-10T08:03:08.260Z,25.98
2017-11-10T08:05:35.732Z,23.58
2017-11-10T08:08:03.198Z,25.23
2017-11-10T08:10:30.710Z,25.58
2017-11-10T08:12:58.202Z,26.75
2017-11-10T08:15:25.687Z,25.12
2017-11-10T08:17:53.153Z,24.75
2017-11-10T08:20:20.603Z,22.67
2017-11-10T08:22:48.057Z,23.55
2017-11-10T08:25:15.517Z,22.55
2017-11-10T08:27:44.277Z,25.10
2017-11-10T08:30:12.290Z,22.15
2017-11-10T08:32:40.517Z,24.73
2017-11-10T08:35:07.990Z,24.37
2017-11-10T08:37:35.564Z,22.35
2017-11-10T08:40:03.035Z,23.15
2017-11-10T08:42:31.266Z,23.83
2017-11-10T08:44:58.725Z,22.13
2017-11-10T08:47:26.161Z,22.98
2017-11-10T08:49:54.393Z,20.27
2017-11-10T08:52:21.873Z,25.02
2017-11-10T08:54:49.346Z,23.42
2017-11-10T08:57:16.782Z,22.05
2017-11-10T08:59:44.217Z,23.27
2017-11-10T09:02:12.493Z,22.45
2017-11-10T09:04:39.925Z,22.98
2017-11-10T09:07:08.160Z,22.65
2017-11-10T09:09:36.100Z,21.25
2017-11-10T09:12:04.367Z,21.02
2017-11-10T09:14:31.807Z,19.48
2017-11-10T09:16:59.267Z,20.98
2017-11-10T09:19:26.735Z,21.37
2017-11-10T09:21:54.306Z,19.10
2017-11-10T09:24:21.745Z,22.23
2017-11-10T09:26:49.237Z,20.85
2017-11-10T09:29:23.266Z,19.90
2017-11-10T09:32:09.537Z,19.87
2017-11-10T09:34:42.621Z,18.92
2017-11-10T09:37:15.844Z,19.17
2017-11-10T09:39:56.852Z,18.45
2017-11-10T09:42:45.934Z,17.77
2017-11-10T09:45:15.002Z,19.60
2017-11-10T09:48:03.287Z,19.48
2017-11-10T09:50:36.865Z,20.50
2017-11-10T09:53:04.333Z,17.37
2017-11-10T09:55:37.413Z,19.35
2017-11-10T09:58:08.326Z,19.75
2017-11-10T10:00:41.745Z,18.67
2017-11-10T10:03:13.581Z,17.20
2017-11-10T10:05:47.798Z,14.95
2017-11-10T10:08:20.243Z,19.10
2017-11-10T10:10:54.431Z,18.98
2017-11-10T10:13:27.626Z,18.90
2017-11-10T10:16:11.790Z,17.05
2017-11-10T10:18:59.139Z,17.80
2017-11-10T10:21:41.521Z,17.95
2017-11-10T10:24:09.015Z,17.50
2017-11-10T10:26:36.476Z,18.83
2017-11-10T10:29:03.950Z,17.90
2017-11-10T10:31:31.409Z,20.65
2017-11-10T10:33:58.905Z,17.48
2017-11-10T10:36:26.342Z,18.80
2017-11-10T10:38:54.566Z,19.10
2017-11-10T10:41:22.052Z,19.90
2017-11-10T10:43:49.506Z,16.40
2017-11-10T10:46:16.965Z,17.05
2017-11-10T10:48:45.203Z,17.23
2017-11-10T10:51:12.640Z,17.67
2017-11-10T10:53:40.133Z,16.27
2017-11-10T10:56:07.578Z,18.58
2017-11-10T10:58:35.793Z,15.68
2017-11-10T11:01:03.297Z,18.60
2017-11-10T11:03:30.789Z,16.98
2017-11-10T11:05:58.241Z,18.23
2017-11-10T11:08:25.953Z,17.12
2017-11-10T11:10:53.800Z,17.58
2017-11-10T11:13:21.248Z,15.57
2017-11-10T11:15:48.688Z,16.27
2017-11-10T11:18:16.160Z,16.55
2017-11-10T11:20:43.593Z,16.33
2017-11-10T11:23:14.944Z,16.33
2017-11-10T11:25:42.427Z,11.77
2017-11-10T11:28:09.884Z,14.43
2017-11-10T11:30:37.321Z,14.60
2017-11-10T11:33:04.841Z,11.30
2017-11-10T11:35:32.312Z,13.27
2017-11-10T11:38:00.555Z,11.73
2017-11-10T11:40:28.033Z,12.55
2017-11-10T11:42:55.490Z,12.37
2017-11-10T11:45:23.006Z,11.68
2017-11-10T11:47:50.500Z,12.73
2017-11-10T11:50:17.982Z,10.85
2017-11-10T11:52:45.423Z,10.95
2017-11-10T11:55:12.871Z,11.68
2017-11-10T11:57:40.326Z,11.98
2017-11-10T12:00:07.761Z,11.63
2017-11-10T12:02:36.026Z,11.25
2017-11-10T12:05:03.484Z,12.20
2017-11-10T12:07:31.458Z,10.25
2017-11-10T12:09:58.900Z,10.25
2017-11-10T12:12:27.214Z,9.00
2017-11-10T12:14:54.645Z,8.98
2017-11-10T12:17:22.893Z,10.05
2017-11-10T12:19:50.310Z,8.85
2017-11-10T12:22:17.777Z,9.40
2017-11-10T12:24:45.237Z,8.45
2017-11-10T12:27:12.687Z,10.82
2017-11-10T12:29:40.141Z,9.20
2017-11-10T12:32:07.582Z,8.73
2017-11-10T12:34:35.068Z,7.85
2017-11-10T12:37:02.813Z,8.15
2017-11-10T12:39:30.257Z,8.20
2017-11-10T12:41:57.718Z,8.82
2017-11-10T12:44:25.163Z,8.40
2017-11-10T12:46:52.626Z,8.50
2017-11-10T12:49:21.033Z,8.07
2017-11-10T12:51:48.490Z,8.05
2017-11-10T12:54:15.921Z,8.20
2017-11-10T12:56:43.495Z,7.15
2017-11-10T12:59:10.956Z,7.35
2017-11-10T13:01:38.579Z,7.57
2017-11-10T13:04:06.049Z,6.80
2017-11-10T13:06:33.516Z,7.32
2017-11-10T13:09:00.968Z,7.15
2017-11-10T13:11:28.535Z,7.65
2017-11-10T13:13:56.801Z,6.75
2017-11-10T13:16:24.242Z,7.28
2017-11-10T13:18:51.689Z,6.20
2017-11-10T13:21:19.192Z,6.60
2017-11-10T13:23:46.729Z,5.68
2017-11-10T13:26:15.019Z,6.75
2017-11-10T13:28:43.303Z,6.07
2017-11-10T13:31:11.557Z,6.28
2017-11-10T13:33:40.027Z,6.72
2017-11-10T13:36:07.491Z,5.45
2017-11-10T13:38:34.942Z,6.60
2017-11-10T13:41:03.859Z,6.55
2017-11-10T13:43:32.089Z,5.10
2017-11-10T13:45:59.527Z,6.50
2017-11-10T13:48:27.762Z,5.93
2017-11-10T13:50:55.194Z,6.00
2017-11-10T13:53:23.409Z,6.55
2017-11-10T13:55:50.909Z,7.10
2017-11-10T13:58:18.408Z,6.65
2017-11-10T14:00:45.842Z,7.28
2017-11-10T14:03:13.269Z,7.30
2017-11-10T14:05:41.331Z,8.50
2017-11-10T14:08:08.778Z,7.60
2017-11-10T14:10:36.255Z,7.95
2017-11-10T14:13:03.689Z,8.27
2017-11-10T14:15:31.938Z,7.70
2017-11-10T14:17:59.405Z,7.93
2017-11-10T14:20:26.862Z,8.15
2017-11-10T14:22:54.302Z,8.05
2017-11-10T14:25:22.538Z,7.60
2017-11-10T14:27:49.977Z,8.05
2017-11-10T14:30:18.210Z,9.30
2017-11-10T14:32:45.685Z,8.38
2017-11-10T14:35:13.138Z,7.40
2017-11-10T14:37:40.599Z,7.75
2017-11-10T14:40:09.564Z,8.50
2017-11-10T14:42:37.040Z,8.95
2017-11-10T14:45:04.537Z,8.27
2017-11-10T14:47:31.997Z,9.75
2017-11-10T14:49:59.429Z,8.40
2017-11-10T14:52:26.914Z,8.38
2017-11-10T14:54:54.413Z,6.78
2017-11-10T14:57:21.863Z,8.50
2017-11-10T14:59:49.330Z,8.88
2017-11-10T15:02:16.799Z,8.48
2017-11-10T15:04:44.288Z,7.43
2017-11-10T15:07:11.752Z,8.07
2017-11-10T15:09:39.202Z,8.05
2017-11-10T15:12:07.419Z,8.40
2017-11-10T15:14:34.890Z,6.05
2017-11-10T15:17:03.150Z,7.75
2017-11-10T15:19:30.589Z,8.05
2017-11-10T15:21:58.077Z,8.13
2017-11-10T15:24:25.546Z,7.60
2017-11-10T15:26:53.016Z,7.80
2017-11-10T15:29:20.469Z,7.95
2017-11-10T15:31:47.928Z,7.10
2017-11-10T15:34:15.359Z,7.90
2017-11-10T15:36:45.899Z,7.93
2017-11-10T15:39:14.333Z,7.68
2017-11-10T15:41:42.562Z,6.55
2017-11-10T15:44:10.003Z,7.35
2017-11-10T15:46:38.233Z,6.57
2017-11-10T15:49:07.142Z,5.60
2017-11-10T15:51:34.586Z,6.50
2017-11-10T15:54:02.037Z,6.15
2017-11-10T15:56:30.269Z,6.05
2017-11-10T15:58:57.750Z,5.45
2017-11-10T16:01:25.187Z,5.68
2017-11-10T16:03:52.697Z,6.12
2017-11-10T16:06:20.129Z,5.47
2017-11-10T16:08:47.588Z,5.03
2017-11-10T16:11:15.041Z,4.25
2017-11-10T16:13:42.535Z,4.65
2017-11-10T16:16:10.012Z,4.45
2017-11-10T16:18:37.452Z,4.75
2017-11-10T16:21:04.928Z,4.07
2017-11-10T16:23:32.381Z,4.05
2017-11-10T16:25:59.837Z,3.95
2017-11-10T16:28:28.061Z,3.87
2017-11-10T16:30:55.513Z,3.22
2017-11-10T16:33:22.966Z,3.10
2017-11-10T16:35:50.422Z,2.92
2017-11-10T16:38:17.869Z,3.92
2017-11-10T16:40:45.326Z,2.70
2017-11-10T16:43:12.847Z,2.70
2017-11-10T16:45:40.323Z,2.53
2017-11-10T16:48:07.796Z,2.75
2017-11-10T16:50:35.229Z,2.70
2017-11-10T16:53:02.709Z,2.80
2017-11-10T16:55:30.176Z,2.60
2017-11-10T16:57:57.623Z,2.60
2017-11-10T17:00:25.862Z,2.90
2017-11-10T17:02:53.328Z,2.55
2017-11-10T17:05:20.784Z,2.55
2017-11-10T17:07:48.390Z,3.00
2017-11-10T17:10:15.866Z,2.90
2017-11-10T17:12:43.362Z,2.85
2017-11-10T17:15:10.846Z,2.60
2017-11-10T17:17:38.316Z,2.80
2017-11-10T17:20:05.796Z,2.87
2017-11-10T17:22:33.258Z,1.80
2017-11-10T17:25:00.699Z,1.62
2017-11-10T17:27:28.148Z,2.20
2017-11-10T17:29:56.374Z,2.70
2017-11-10T17:32:23.843Z,2.70
2017-11-10T17:34:51.306Z,2.78
2017-11-10T17:37:19.514Z,2.90
2017-11-10T17:39:46.964Z,2.58
2017-11-10T17:42:14.410Z,4.07
2017-11-10T17:44:41.841Z,3.60
2017-11-10T17:47:09.309Z,2.60
2017-11-10T17:49:36.762Z,3.20
2017-11-10T17:52:04.225Z,3.30
2017-11-10T17:54:31.670Z,3.40
2017-11-10T17:56:59.133Z,3.62
2017-11-10T17:59:27.336Z,3.33
2017-11-10T18:01:54.775Z,3.50
2017-11-10T18:04:22.245Z,2.80
2017-11-10T18:06:49.840Z,3.08
2017-11-10T18:09:17.305Z,2.62
2017-11-10T18:11:44.776Z,3.47
2017-11-10T18:14:12.262Z,3.47
2017-11-10T18:16:39.729Z,3.35
2017-11-10T18:19:07.220Z,3.42
2017-11-10T18:21:34.661Z,4.05
2017-11-10T18:24:02.102Z,3.58
2017-11-10T18:26:29.582Z,4.72
2017-11-10T18:28:57.049Z,4.65
2017-11-10T18:31:24.525Z,4.57
2017-11-10T18:33:51.978Z,3.60
2017-11-10T18:36:19.424Z,4.65
2017-11-10T18:38:46.903Z,3.55
2017-11-10T18:41:14.493Z,4.07
2017-11-10T18:43:41.938Z,4.12
2017-11-10T18:46:09.366Z,4.18
2017-11-10T18:48:42.389Z,5.28
2017-11-10T18:51:10.616Z,6.12
2017-11-10T18:53:41.608Z,4.25
2017-11-10T18:56:09.461Z,3.78
2017-11-10T18:58:36.924Z,4.53
2017-11-10T19:01:04.618Z,4.25
2017-11-10T19:03:32.124Z,4.65
2017-11-10T19:05:59.549Z,4.20
2017-11-10T19:08:27.163Z,4.50
2017-11-10T19:10:54.644Z,3.60
2017-11-10T19:13:22.888Z,5.22
2017-11-10T19:15:51.125Z,4.72
2017-11-10T19:18:19.210Z,3.92
2017-11-10T19:20:46.649Z,4.80
2017-11-10T19:23:14.102Z,4.72
2017-11-10T19:25:41.607Z,5.45
2017-11-10T19:28:09.160Z,4.45
2017-11-10T19:30:37.573Z,3.95
2017-11-10T19:33:05.108Z,4.00
2017-11-10T19:35:33.384Z,4.85
2017-11-10T19:38:01.471Z,5.40
2017-11-10T19:40:28.977Z,4.82
2017-11-10T19:42:56.488Z,4.75
2017-11-10T19:45:23.977Z,5.90
2017-11-10T19:47:51.463Z,4.05
2017-11-10T19:50:18.964Z,4.53
2017-11-10T19:52:46.438Z,4.20
2017-11-10T19:55:13.920Z,4.70
2017-11-10T19:57:42.377Z,4.78
2017-11-10T20:00:09.835Z,4.37
2017-11-10T20:02:37.514Z,4.78
2017-11-10T20:05:05.752Z,4.93
2017-11-10T20:07:33.354Z,4.60
2017-11-10T20:10:01.700Z,4.10
2017-11-10T20:12:30.199Z,5.35
2017-11-10T20:14:58.163Z,3.70
2017-11-10T20:17:25.639Z,4.53
2017-11-10T20:19:54.449Z,4.30
2017-11-10T20:22:22.512Z,5.20
2017-11-10T20:24:50.819Z,5.03
2017-11-10T20:27:23.358Z,4.90
2017-11-10T20:29:50.852Z,5.10
2017-11-10T20:32:18.323Z,5.37
2017-11-10T20:34:46.327Z,5.37
2017-11-10T20:37:13.773Z,5.22
2017-11-10T20:39:41.246Z,4.10
2017-11-10T20:42:08.938Z,3.80
2017-11-10T20:44:36.499Z,3.70
2017-11-10T20:47:04.760Z,4.28
2017-11-10T20:49:32.283Z,4.70
2017-11-10T20:51:59.816Z,3.78
2017-11-10T20:54:27.251Z,5.05
2017-11-10T20:56:54.749Z,4.40
2017-11-10T20:59:22.199Z,4.20
2017-11-10T21:01:49.714Z,4.10
2017-11-10T21:04:17.198Z,4.68
2017-11-10T21:06:44.720Z,3.97
2017-11-10T21:09:12.166Z,4.25
2017-11-10T21:11:39.700Z,3.87
2017-11-10T21:14:07.627Z,4.90
2017-11-10T21:16:36.345Z,4.65
2017-11-10T21:19:03.772Z,4.60
2017-11-10T21:21:31.344Z,5.72
2017-11-10T21:24:02.021Z,5.35
2017-11-10T21:26:29.527Z,5.07
2017-11-10T21:28:57.084Z,4.30
2017-11-10T21:31:24.555Z,3.75
2017-11-10T21:33:52.044Z,4.00
2017-11-10T21:36:19.535Z,3.50
2017-11-10T21:38:46.990Z,4.55
2017-11-10T21:41:14.438Z,4.75
2017-11-10T21:43:41.953Z,4.43
2017-11-10T21:46:09.438Z,4.32
2017-11-10T21:48:36.919Z,5.18
2017-11-10T21:51:04.628Z,4.50
2017-11-10T21:53:33.737Z,4.95
2017-11-10T21:56:01.978Z,5.12
2017-11-10T21:58:29.436Z,5.80
2017-11-10T22:00:56.997Z,4.12
2017-11-10T22:03:24.446Z,5.25
2017-11-10T22:05:52.669Z,4.55
2017-11-10T22:08:20.119Z,5.60
2017-11-10T22:10:48.413Z,5.43
2017-11-10T22:13:16.616Z,4.75
2017-11-10T22:15:48.082Z,4.50
2017-11-10T22:18:15.799Z,4.68
2017-11-10T22:20:43.267Z,4.70
2017-11-10T22:23:11.515Z,4.95
2017-11-10T22:25:38.975Z,5.05
2017-11-10T22:28:06.449Z,3.92
2017-11-10T22:30:34.106Z,4.12
2017-11-10T22:33:01.585Z,3.70
2017-11-10T22:35:29.030Z,3.97
2017-11-10T22:37:56.500Z,4.00
2017-11-10T22:40:23.974Z,4.03
2017-11-10T22:42:52.200Z,3.80
2017-11-10T22:45:19.677Z,3.40
2017-11-10T22:47:47.940Z,4.15
2017-11-10T22:50:15.391Z,3.60
2017-11-10T22:52:42.861Z,3.65
2017-11-10T22:55:11.115Z,3.75
2017-11-10T22:57:38.561Z,4.60
2017-11-10T23:00:06.021Z,3.72
2017-11-10T23:02:33.454Z,4.07
2017-11-10T23:05:00.945Z,4.10
2017-11-10T23:07:28.381Z,3.20
2017-11-10T23:09:55.848Z,4.20
2017-11-10T23:12:23.283Z,3.53
2017-11-10T23:14:50.841Z,4.03
2017-11-10T23:17:19.057Z,4.80
2017-11-10T23:19:46.519Z,5.05
2017-11-10T23:22:14.749Z,3.85
2017-11-10T23:24:42.194Z,3.87
2017-11-10T23:27:09.666Z,3.40
2017-11-10T23:29:37.860Z,3.85
2017-11-10T23:32:05.319Z,3.58
2017-11-10T23:34:33.531Z,3.97
2017-11-10T23:37:01.082Z,3.25
2017-11-10T23:39:29.345Z,4.55
2017-11-10T23:41:58.454Z,3.30
2017-11-10T23:44:25.952Z,4.68
2017-11-10T23:46:53.370Z,4.15
2017-11-10T23:49:20.828Z,4.00
2017-11-10T23:51:48.275Z,3.87
2017-11-10T23:54:15.783Z,4.25
2017-11-10T23:56:43.243Z,3.10
2017-11-10T23:59:11.490Z,3.80
